createdAt,value
2018-03-02T00:01:08.692Z,11.93
2018-03-02T00:03:36.434Z,14.27
2018-03-02T00:06:05.404Z,14.40
2018-03-02T00:08:33.498Z,12.30
2018-03-02T00:11:01.777Z,12.70
2018-03-02T00:13:29.845Z,13.33
2018-03-02T00:15:57.922Z,14.57
2018-03-02T00:18:25.963Z,14.70
2018-03-02T00:20:53.685Z,14.00
2018-03-02T00:23:22.622Z,13.80
2018-03-02T00:25:50.409Z,13.63
2018-03-02T00:28:18.405Z,14.20
2018-03-02T00:30:46.359Z,12.83
2018-03-02T00:33:14.488Z,12.60
2018-03-02T00:35:42.359Z,14.20
2018-03-02T00:38:10.189Z,12.70
2018-03-02T00:40:38.316Z,14.20
2018-03-02T00:43:06.183Z,20.80
2018-03-02T00:45:34.268Z,14.50
2018-03-02T00:48:02.341Z,13.00
2018-03-02T00:50:30.183Z,16.37
2018-03-02T00:52:58.254Z,16.20
2018-03-02T00:55:26.091Z,15.63
2018-03-02T00:57:53.933Z,18.77
2018-03-02T01:00:21.803Z,17.50
2018-03-02T01:02:49.645Z,18.20
2018-03-02T01:05:17.484Z,18.87
2018-03-02T01:07:45.327Z,17.57
2018-03-02T01:10:13.193Z,16.53
2018-03-02T01:12:41.036Z,16.70
2018-03-02T01:15:09.074Z,15.70
2018-03-02T01:17:37.142Z,13.43
2018-03-02T01:20:05.030Z,16.57
2018-03-02T01:22:32.794Z,16.90
2018-03-02T01:25:00.795Z,16.77
2018-03-02T01:27:28.761Z,14.10
2018-03-02T01:29:56.875Z,17.17
2018-03-02T01:32:24.741Z,18.40
2018-03-02T01:34:52.537Z,14.37
2018-03-02T01:37:20.604Z,13.40
2018-03-02T01:39:48.677Z,13.77
2018-03-02T01:42:17.260Z,12.20
2018-03-02T01:44:45.333Z,16.47
2018-03-02T01:47:13.391Z,16.43
2018-03-02T01:49:41.260Z,16.67
2018-03-02T01:52:09.343Z,20.23
2018-03-02T01:54:37.312Z,14.37
2018-03-02T01:57:05.335Z,14.47
2018-03-02T01:59:33.268Z,13.97
2018-03-02T02:02:01.145Z,13.03
2018-03-02T02:04:29.285Z,13.70
2018-03-02T02:06:57.365Z,12.90
2018-03-02T02:09:25.388Z,14.13
2018-03-02T02:11:53.314Z,14.90
2018-03-02T02:14:21.356Z,14.93
2018-03-02T02:16:49.242Z,13.47
2018-03-02T02:19:17.412Z,13.20
2018-03-02T02:21:45.354Z,14.07
2018-03-02T02:24:13.317Z,16.73
2018-03-02T02:26:41.216Z,12.70
2018-03-02T02:29:09.096Z,13.57
2018-03-02T02:31:37.817Z,14.67
2018-03-02T02:34:06.143Z,14.33
2018-03-02T02:36:34.229Z,13.30
2018-03-02T02:39:02.171Z,14.03
2018-03-02T02:41:30.036Z,12.20
2018-03-02T02:43:57.880Z,11.23
2018-03-02T02:46:25.902Z,14.33
2018-03-02T02:48:54.178Z,14.10
2018-03-02T02:51:22.175Z,14.73
2018-03-02T02:53:50.070Z,13.23
2018-03-02T02:56:18.188Z,13.00
2018-03-02T02:58:46.178Z,13.70
2018-03-02T03:01:14.946Z,14.77
2018-03-02T03:03:43.393Z,11.77
2018-03-02T03:06:11.354Z,13.73
2018-03-02T03:08:39.348Z,14.17
2018-03-02T03:11:07.288Z,12.57
2018-03-02T03:13:35.178Z,14.10
2018-03-02T03:16:03.088Z,16.43
2018-03-02T03:18:31.144Z,14.83
2018-03-02T03:20:59.217Z,11.83
2018-03-02T03:23:26.987Z,13.37
2018-03-02T03:25:55.053Z,12.53
2018-03-02T03:28:23.231Z,12.77
2018-03-02T03:30:51.301Z,13.77
2018-03-02T03:33:19.289Z,13.17
2018-03-02T03:35:47.430Z,13.97
2018-03-02T03:38:15.496Z,11.97
2018-03-02T03:40:43.592Z,13.27
2018-03-02T03:43:11.869Z,14.70
2018-03-02T03:45:40.746Z,15.90
2018-03-02T03:48:09.393Z,14.80
2018-03-02T03:50:38.335Z,15.30
2018-03-02T03:53:06.406Z,13.00
2018-03-02T03:55:34.376Z,13.00
2018-03-02T03:58:02.309Z,13.23
2018-03-02T04:00:30.272Z,12.60
2018-03-02T04:02:58.093Z,15.37
2018-03-02T04:05:25.956Z,15.27
2018-03-02T04:07:54.327Z,19.13
2018-03-02T04:10:22.195Z,17.73
2018-03-02T04:12:50.016Z,15.60
2018-03-02T04:15:18.010Z,14.93
2018-03-02T04:17:46.098Z,16.20
2018-03-02T04:20:14.081Z,17.70
2018-03-02T04:22:41.966Z,15.30
2018-03-02T04:25:09.991Z,14.43
2018-03-02T04:27:37.833Z,16.40
2018-03-02T04:30:05.946Z,14.90
2018-03-02T04:32:33.814Z,13.90
2018-03-02T04:35:01.683Z,12.37
2018-03-02T04:37:29.650Z,15.53
2018-03-02T04:39:57.518Z,14.10
2018-03-02T04:42:26.206Z,14.87
2018-03-02T04:44:54.174Z,13.63
2018-03-02T04:47:22.916Z,14.30
2018-03-02T04:49:50.879Z,14.63
2018-03-02T04:52:18.748Z,14.20
2018-03-02T04:54:46.719Z,14.73
2018-03-02T04:57:14.558Z,16.90
2018-03-02T04:59:42.604Z,10.20
2018-03-02T05:02:10.684Z,13.60
2018-03-02T05:04:40.226Z,14.70
2018-03-02T05:07:08.357Z,14.77
2018-03-02T05:09:36.365Z,14.77
2018-03-02T05:12:04.258Z,14.40
2018-03-02T05:14:32.149Z,12.50
2018-03-02T05:17:00.842Z,13.40
2018-03-02T05:19:28.781Z,14.63
2018-03-02T05:21:56.647Z,14.33
2018-03-02T05:24:24.516Z,13.60
2018-03-02T05:26:52.407Z,15.53
2018-03-02T05:29:20.287Z,15.23
2018-03-02T05:31:48.312Z,13.40
2018-03-02T05:34:16.408Z,14.60
2018-03-02T05:36:44.223Z,12.23
2018-03-02T05:39:12.309Z,15.97
2018-03-02T05:41:40.409Z,14.33
2018-03-02T05:44:08.226Z,14.67
2018-03-02T05:46:37.371Z,15.77
2018-03-02T05:49:05.459Z,16.33
2018-03-02T05:51:33.622Z,12.97
2018-03-02T05:54:01.521Z,13.47
2018-03-02T05:56:29.661Z,14.63
2018-03-02T05:58:59.350Z,14.87
2018-03-02T06:01:27.370Z,14.73
2018-03-02T06:03:55.429Z,13.07
2018-03-02T06:06:23.498Z,16.70
2018-03-02T06:08:51.590Z,15.80
2018-03-02T06:11:19.659Z,16.03
2018-03-02T06:13:47.722Z,16.50
2018-03-02T06:16:15.705Z,15.17
2018-03-02T06:18:43.757Z,13.50
2018-03-02T06:21:11.698Z,16.63
2018-03-02T06:23:41.455Z,17.17
2018-03-02T06:26:09.531Z,16.07
2018-03-02T06:28:37.451Z,14.30
2018-03-02T06:31:05.567Z,17.77
2018-03-02T06:33:33.647Z,20.70
2018-03-02T06:36:01.452Z,25.87
2018-03-02T06:38:29.579Z,18.60
2018-03-02T06:40:57.508Z,16.33
2018-03-02T06:43:25.426Z,15.93
2018-03-02T06:45:53.994Z,17.17
2018-03-02T06:48:22.070Z,15.97
2018-03-02T06:50:50.139Z,15.93
2018-03-02T06:53:18.020Z,16.03
2018-03-02T06:55:46.084Z,16.90
2018-03-02T06:58:14.451Z,16.07
2018-03-02T07:00:43.761Z,16.23
2018-03-02T07:03:11.759Z,16.20
2018-03-02T07:05:39.702Z,17.47
2018-03-02T07:08:07.768Z,23.77
2018-03-02T07:10:35.867Z,22.90
2018-03-02T07:13:03.776Z,18.80
2018-03-02T07:15:31.645Z,22.30
2018-03-02T07:18:00.262Z,22.00
2018-03-02T07:20:28.206Z,21.57
2018-03-02T07:22:56.209Z,21.70
2018-03-02T07:25:24.993Z,21.63
2018-03-02T07:27:52.962Z,23.27
2018-03-02T07:30:20.743Z,26.40
2018-03-02T07:32:48.950Z,29.30
2018-03-02T07:35:16.790Z,32.87
2018-03-02T07:37:44.823Z,30.70
2018-03-02T07:40:12.910Z,32.53
2018-03-02T07:42:40.960Z,33.20
2018-03-02T07:45:08.838Z,34.07
2018-03-02T07:47:36.787Z,28.83
2018-03-02T07:50:04.686Z,32.27
2018-03-02T07:52:32.924Z,33.10
2018-03-02T07:55:00.839Z,35.33
2018-03-02T07:57:28.779Z,33.17
2018-03-02T07:59:56.693Z,32.70
2018-03-02T08:02:24.542Z,34.90
2018-03-02T08:04:52.707Z,30.67
2018-03-02T08:07:21.517Z,35.13
2018-03-02T08:09:49.591Z,33.57
2018-03-02T08:12:17.646Z,33.63
2018-03-02T08:14:45.507Z,32.93
2018-03-02T08:17:14.265Z,33.30
2018-03-02T08:19:42.227Z,31.37
2018-03-02T08:22:11.570Z,33.93
2018-03-02T08:24:39.587Z,33.37
2018-03-02T08:27:07.407Z,32.50
2018-03-02T08:32:26.177Z,33.03
2018-03-02T08:34:54.177Z,33.70
2018-03-02T08:37:22.298Z,31.73
2018-03-02T08:39:50.386Z,28.70
2018-03-02T08:42:18.487Z,33.90
2018-03-02T08:44:46.423Z,31.20
2018-03-02T08:47:14.439Z,36.80
2018-03-02T08:49:42.579Z,33.10
2018-03-02T08:52:10.650Z,32.87
2018-03-02T08:54:38.587Z,32.80
2018-03-02T08:57:06.553Z,34.90
2018-03-02T08:59:34.473Z,33.47
2018-03-02T09:02:02.614Z,34.63
2018-03-02T09:04:30.702Z,33.80
2018-03-02T09:06:58.676Z,33.40
2018-03-02T09:09:26.771Z,31.83
2018-03-02T09:11:54.814Z,35.17
2018-03-02T09:14:22.847Z,33.50
2018-03-02T09:16:50.959Z,32.77
2018-03-02T09:19:18.849Z,30.47
2018-03-02T09:21:46.781Z,32.23
2018-03-02T09:24:14.766Z,33.37
2018-03-02T09:26:42.682Z,34.73
2018-03-02T09:29:11.374Z,31.80
2018-03-02T09:31:39.293Z,31.93
2018-03-02T09:34:07.430Z,31.80
2018-03-02T09:36:35.350Z,34.00
2018-03-02T09:39:03.504Z,33.50
2018-03-02T09:41:31.631Z,30.90
2018-03-02T09:43:59.755Z,32.70
2018-03-02T09:46:27.825Z,34.67
2018-03-02T09:48:55.561Z,35.70
2018-03-02T09:51:23.392Z,31.10
2018-03-02T09:53:51.423Z,28.80
2018-03-02T09:56:19.510Z,29.90
2018-03-02T09:58:47.569Z,32.97
2018-03-02T10:01:15.444Z,30.43
2018-03-02T10:03:43.505Z,26.90
2018-03-02T10:06:11.782Z,33.10
2018-03-02T10:08:39.757Z,30.43
2018-03-02T10:11:07.848Z,30.30
2018-03-02T10:13:35.850Z,32.20
2018-03-02T10:16:03.718Z,32.70
2018-03-02T10:18:31.840Z,32.10
2018-03-02T10:21:00.730Z,30.93
2018-03-02T10:23:28.796Z,30.43
2018-03-02T10:25:56.893Z,31.50
2018-03-02T10:28:24.943Z,30.00
2018-03-02T10:30:53.547Z,32.90
2018-03-02T10:33:21.412Z,28.90
2018-03-02T10:35:49.425Z,26.73
2018-03-02T10:38:18.248Z,31.53
2018-03-02T10:40:46.331Z,30.43
2018-03-02T10:43:14.131Z,31.27
2018-03-02T10:45:42.164Z,30.10
2018-03-02T10:48:10.109Z,32.20
2018-03-02T10:50:38.202Z,33.23
2018-03-02T10:53:06.177Z,32.33
2018-03-02T10:55:34.239Z,31.57
2018-03-02T10:58:02.204Z,27.50
2018-03-02T11:00:35.797Z,29.60
2018-03-02T11:03:03.696Z,30.70
2018-03-02T11:05:37.283Z,30.23
2018-03-02T11:08:05.295Z,30.97
2018-03-02T11:10:33.837Z,30.73
2018-03-02T11:13:01.904Z,32.73
2018-03-02T11:15:29.981Z,30.43
2018-03-02T11:17:58.155Z,29.60
2018-03-02T11:20:26.085Z,33.00
2018-03-02T11:22:54.147Z,36.57
2018-03-02T11:25:22.038Z,29.10
2018-03-02T11:27:50.130Z,31.70
2018-03-02T11:30:18.210Z,29.87
2018-03-02T11:32:46.263Z,32.93
2018-03-02T11:35:14.332Z,35.60
2018-03-02T11:37:42.175Z,33.43
2018-03-02T11:40:10.542Z,31.87
2018-03-02T11:42:39.079Z,33.40
2018-03-02T11:45:07.072Z,31.10
2018-03-02T11:47:34.939Z,34.27
2018-03-02T11:50:03.703Z,32.00
2018-03-02T11:52:32.350Z,31.47
2018-03-02T11:55:00.372Z,31.80
2018-03-02T11:57:28.356Z,33.73
2018-03-02T11:59:56.504Z,32.60
2018-03-02T12:02:24.345Z,32.97
2018-03-02T12:04:52.308Z,31.50
2018-03-02T12:07:19.991Z,34.20
2018-03-02T12:09:47.769Z,31.43
2018-03-02T12:12:15.481Z,31.80
2018-03-02T12:14:43.393Z,28.50
2018-03-02T12:17:11.086Z,31.13
2018-03-02T12:19:39.194Z,32.00
2018-03-02T12:22:07.329Z,33.17
2018-03-02T12:24:35.218Z,32.33
2018-03-02T12:27:03.559Z,31.97
2018-03-02T12:29:32.856Z,32.53
2018-03-02T12:32:00.806Z,33.13
2018-03-02T12:34:29.005Z,35.77
2018-03-02T12:36:57.002Z,33.70
2018-03-02T12:39:24.732Z,32.63
2018-03-02T12:41:52.735Z,33.17
2018-03-02T12:44:20.602Z,34.37
2018-03-02T12:46:49.472Z,34.20
2018-03-02T12:49:18.644Z,31.50
2018-03-02T12:51:46.732Z,30.57
2018-03-02T12:54:14.800Z,30.67
2018-03-02T12:56:42.838Z,30.80
2018-03-02T12:59:10.810Z,33.70
2018-03-02T13:01:38.949Z,30.93
2018-03-02T13:04:06.996Z,31.70
2018-03-02T13:06:35.267Z,32.43
2018-03-02T13:09:03.166Z,30.17
2018-03-02T13:11:31.230Z,29.43
2018-03-02T13:13:59.463Z,32.63
2018-03-02T13:16:27.452Z,32.00
2018-03-02T13:18:55.592Z,33.57
2018-03-02T13:21:23.463Z,29.77
2018-03-02T13:23:51.331Z,30.97
2018-03-02T13:26:31.037Z,34.93
2018-03-02T13:28:58.896Z,31.00
2018-03-02T13:31:26.872Z,30.23
2018-03-02T13:34:06.798Z,31.00
2018-03-02T13:36:34.743Z,30.80
2018-03-02T13:39:02.898Z,33.40
2018-03-02T13:41:42.679Z,30.97
2018-03-02T13:44:10.930Z,33.50
2018-03-02T13:46:39.026Z,32.47
2018-03-02T13:49:18.661Z,31.97
2018-03-02T13:51:46.821Z,31.53
2018-03-02T13:54:15.501Z,31.73
2018-03-02T13:56:55.145Z,30.57
2018-03-02T13:59:23.006Z,29.07
2018-03-02T14:01:51.024Z,29.27
2018-03-02T14:04:30.618Z,31.77
2018-03-02T14:06:59.378Z,33.53
2018-03-02T14:09:28.739Z,29.70
2018-03-02T14:11:57.817Z,30.50
2018-03-02T14:14:25.603Z,30.27
2018-03-02T14:16:53.871Z,31.93
2018-03-02T14:19:21.892Z,31.30
2018-03-02T14:21:49.986Z,31.13
2018-03-02T14:24:18.812Z,32.77
2018-03-02T14:26:47.604Z,31.03
2018-03-02T14:29:16.563Z,33.50
2018-03-02T14:31:44.732Z,30.17
2018-03-02T14:34:13.819Z,31.10
2018-03-02T14:36:41.938Z,32.07
2018-03-02T14:39:09.981Z,30.30
2018-03-02T14:41:38.204Z,30.50
2018-03-02T14:44:06.342Z,32.30
2018-03-02T14:46:34.234Z,31.87
2018-03-02T14:49:02.099Z,31.07
2018-03-02T14:51:30.141Z,33.47
2018-03-02T14:53:59.236Z,34.30
2018-03-02T14:56:27.434Z,39.87
2018-03-02T14:58:55.489Z,40.53
2018-03-02T15:01:23.560Z,36.57
2018-03-02T15:03:51.545Z,36.20
2018-03-02T15:06:19.348Z,36.03
2018-03-02T15:08:47.197Z,37.67
2018-03-02T15:11:15.022Z,34.43
2018-03-02T15:13:42.863Z,37.40
2018-03-02T15:16:10.613Z,32.83
2018-03-02T15:18:39.620Z,35.53
2018-03-02T15:21:07.404Z,31.30
2018-03-02T15:23:35.180Z,33.87
2018-03-02T15:26:03.812Z,39.20
2018-03-02T15:28:31.623Z,41.37
2018-03-02T15:30:59.317Z,39.23
2018-03-02T15:33:27.089Z,34.93
2018-03-02T15:35:54.921Z,36.60
2018-03-02T15:38:22.702Z,33.80
2018-03-02T15:40:50.486Z,35.40
2018-03-02T15:43:19.148Z,33.93
2018-03-02T15:45:47.133Z,34.43
2018-03-02T15:48:15.818Z,36.17
2018-03-02T15:50:44.116Z,35.60
2018-03-02T15:53:12.136Z,31.07
2018-03-02T15:55:40.244Z,32.07
2018-03-02T15:58:08.178Z,33.00
2018-03-02T16:00:36.863Z,30.60
2018-03-02T16:03:04.730Z,30.83
2018-03-02T16:05:32.697Z,32.20
2018-03-02T16:08:00.614Z,30.10
2018-03-02T16:10:28.700Z,35.03
2018-03-02T16:12:56.947Z,34.67
2018-03-02T16:15:25.440Z,36.07
2018-03-02T16:17:53.734Z,35.43
2018-03-02T16:20:21.875Z,33.10
2018-03-02T16:22:50.788Z,35.70
2018-03-02T16:25:19.099Z,37.30
2018-03-02T16:27:50.968Z,35.30
2018-03-02T16:30:18.844Z,34.77
2018-03-02T16:32:46.709Z,34.13
2018-03-02T16:35:14.675Z,39.20
2018-03-02T16:37:43.503Z,34.90
2018-03-02T16:40:11.534Z,34.30
2018-03-02T16:42:39.809Z,36.07
2018-03-02T16:45:08.633Z,35.17
2018-03-02T16:47:37.050Z,31.33
2018-03-02T16:50:05.074Z,33.47
2018-03-02T16:52:33.161Z,31.30
2018-03-02T16:55:01.236Z,33.13
2018-03-02T16:57:30.434Z,32.17
2018-03-02T16:59:58.784Z,33.20
2018-03-02T17:02:26.889Z,36.83
2018-03-02T17:04:54.958Z,33.80
2018-03-02T17:07:24.116Z,33.20
2018-03-02T17:09:51.989Z,37.93
2018-03-02T17:12:19.994Z,39.30
2018-03-02T17:14:48.676Z,37.37
2018-03-02T17:17:16.688Z,36.73
2018-03-02T17:19:44.532Z,39.97
2018-03-02T17:22:12.596Z,34.87
2018-03-02T17:24:40.513Z,33.33
2018-03-02T17:27:10.255Z,38.57
2018-03-02T17:29:38.952Z,31.97
2018-03-02T17:32:06.890Z,36.27
2018-03-02T17:34:36.584Z,32.70
2018-03-02T17:37:04.619Z,32.50
2018-03-02T17:39:32.571Z,35.27
2018-03-02T17:42:00.541Z,34.70
2018-03-02T17:44:28.614Z,35.00
2018-03-02T17:46:56.685Z,35.50
2018-03-02T17:49:24.760Z,33.63
2018-03-02T17:51:52.625Z,35.23
2018-03-02T17:54:20.571Z,35.37
2018-03-02T17:56:48.416Z,35.37
2018-03-02T17:59:16.602Z,38.50
2018-03-02T18:01:44.566Z,34.80
2018-03-02T18:04:12.802Z,37.17
2018-03-02T18:06:40.859Z,36.93
2018-03-02T18:09:09.393Z,37.70
2018-03-02T18:11:37.360Z,37.73
2018-03-02T18:14:05.425Z,38.57
2018-03-02T18:16:33.320Z,34.80
2018-03-02T18:19:02.481Z,37.40
2018-03-02T18:21:31.329Z,37.27
2018-03-02T18:23:59.196Z,36.80
2018-03-02T18:26:27.821Z,33.67
2018-03-02T18:28:56.058Z,36.67
2018-03-02T18:31:24.125Z,36.13
2018-03-02T18:33:52.165Z,38.10
2018-03-02T18:36:20.252Z,37.07
2018-03-02T18:38:48.423Z,36.83
2018-03-02T18:41:17.034Z,34.30
2018-03-02T18:43:45.922Z,36.90
2018-03-02T18:46:13.951Z,37.37
2018-03-02T18:48:42.066Z,37.40
2018-03-02T18:51:09.905Z,36.40
2018-03-02T18:53:37.776Z,34.80
2018-03-02T18:56:05.941Z,37.23
2018-03-02T18:58:34.864Z,35.90
2018-03-02T19:01:03.640Z,34.93
2018-03-02T19:03:31.733Z,35.40
2018-03-02T19:05:59.880Z,35.13
2018-03-02T19:08:28.176Z,33.27
2018-03-02T19:10:56.556Z,34.27
2018-03-02T19:13:24.343Z,32.53
2018-03-02T19:15:52.425Z,34.80
2018-03-02T19:18:20.413Z,34.97
2018-03-02T19:20:49.234Z,36.80
2018-03-02T19:23:17.173Z,37.33
2018-03-02T19:25:45.396Z,33.57
2018-03-02T19:28:13.371Z,38.27
2018-03-02T19:30:41.398Z,33.57
2018-03-02T19:33:09.294Z,34.50
2018-03-02T19:35:37.426Z,32.53
2018-03-02T19:38:05.623Z,34.87
2018-03-02T19:40:33.493Z,37.47
2018-03-02T19:43:01.591Z,35.83
2018-03-02T19:45:30.604Z,36.40
2018-03-02T19:47:58.570Z,33.47
2018-03-02T19:50:26.627Z,35.23
2018-03-02T19:52:54.803Z,33.17
2018-03-02T19:55:22.977Z,34.03
2018-03-02T19:57:52.262Z,31.03
2018-03-02T20:00:21.273Z,35.47
2018-03-02T20:02:49.442Z,32.83
2018-03-02T20:05:17.291Z,35.67
2018-03-02T20:07:45.381Z,34.43
2018-03-02T20:10:14.051Z,32.30
2018-03-02T20:12:41.915Z,35.40
2018-03-02T20:15:10.077Z,33.87
2018-03-02T20:17:39.267Z,34.30
2018-03-02T20:20:07.381Z,36.90
2018-03-02T20:22:37.172Z,35.60
2018-03-02T20:25:06.191Z,36.20
2018-03-02T20:27:35.288Z,36.70
2018-03-02T20:30:03.444Z,33.10
2018-03-02T20:32:32.247Z,34.20
2018-03-02T20:35:01.408Z,38.40
2018-03-02T20:37:29.506Z,35.97
2018-03-02T20:39:57.571Z,33.40
2018-03-02T20:42:27.094Z,34.07
2018-03-02T20:44:55.421Z,39.93
2018-03-02T20:47:23.576Z,37.07
2018-03-02T20:49:52.536Z,35.00
2018-03-02T20:52:21.433Z,39.37
2018-03-02T20:54:51.142Z,36.60
2018-03-02T20:57:19.923Z,38.20
2018-03-02T20:59:48.902Z,35.83
2018-03-02T21:02:16.993Z,36.53
2018-03-02T21:04:45.148Z,34.17
2018-03-02T21:07:13.349Z,36.97
2018-03-02T21:09:41.426Z,36.50
2018-03-02T21:12:10.209Z,39.17
2018-03-02T21:14:38.381Z,36.20
2018-03-02T21:17:06.466Z,39.57
2018-03-02T21:19:34.590Z,37.00
2018-03-02T21:22:02.456Z,36.53
2018-03-02T21:24:30.671Z,37.80
2018-03-02T21:26:58.742Z,36.60
2018-03-02T21:29:26.621Z,36.47
2018-03-02T21:31:54.823Z,37.47
2018-03-02T21:34:23.700Z,37.37
2018-03-02T21:36:51.627Z,38.27
2018-03-02T21:39:19.711Z,36.47
2018-03-02T21:41:47.765Z,40.60
2018-03-02T21:44:15.752Z,37.70
2018-03-02T21:46:43.829Z,38.07
2018-03-02T21:49:11.987Z,34.03
2018-03-02T21:51:39.886Z,36.30
2018-03-02T21:54:07.902Z,35.43
2018-03-02T21:56:37.188Z,40.17
2018-03-02T21:59:05.385Z,37.97
2018-03-02T22:01:33.596Z,36.90
2018-03-02T22:04:01.521Z,35.10
2018-03-02T22:06:30.709Z,40.10
2018-03-02T22:08:58.826Z,38.77
2018-03-02T22:11:28.236Z,39.73
2018-03-02T22:13:56.261Z,39.97
2018-03-02T22:16:24.225Z,38.10
2018-03-02T22:18:52.149Z,38.70
2018-03-02T22:21:20.332Z,38.03
2018-03-02T22:23:48.590Z,36.70
2018-03-02T22:26:16.522Z,39.20
2018-03-02T22:28:44.437Z,39.80
2018-03-02T22:31:12.413Z,37.20
2018-03-02T22:33:41.390Z,38.07
2018-03-02T22:36:09.458Z,38.70
2018-03-02T22:38:38.351Z,40.90
2018-03-02T22:41:07.138Z,42.37
2018-03-02T22:43:35.211Z,39.50
2018-03-02T22:46:03.102Z,39.67
2018-03-02T22:48:31.147Z,38.27
2018-03-02T22:50:59.227Z,37.50
2018-03-02T22:53:27.293Z,39.47
2018-03-02T22:55:55.366Z,43.87
2018-03-02T22:58:23.387Z,39.00
2018-03-02T23:00:51.411Z,37.20
2018-03-02T23:03:19.352Z,39.27
2018-03-02T23:05:47.322Z,39.23
2018-03-02T23:08:15.317Z,37.97
2018-03-02T23:10:43.276Z,37.27
2018-03-02T23:13:11.261Z,41.67
2018-03-02T23:15:40.379Z,39.53
2018-03-02T23:18:08.499Z,40.23
2018-03-02T23:20:36.596Z,40.43
2018-03-02T23:23:04.382Z,40.57
2018-03-02T23:25:32.253Z,42.83
2018-03-02T23:28:00.469Z,37.97
2018-03-02T23:30:29.206Z,42.37
2018-03-02T23:32:57.250Z,37.73
2018-03-02T23:35:25.215Z,40.33
2018-03-02T23:37:53.262Z,42.67
2018-03-02T23:40:21.352Z,40.97
2018-03-02T23:42:49.314Z,41.60
2018-03-02T23:45:17.417Z,41.57
2018-03-02T23:47:45.491Z,38.37
2018-03-02T23:50:13.490Z,38.57
2018-03-02T23:52:42.039Z,39.90
2018-03-02T23:55:10.523Z,38.20
2018-03-02T23:57:38.469Z,37.40
